Time;durP1;ratioP1;P1;durP2;ratioP2;P2;SDS_P1;SDS_P2;PMS_P1;PMS_P2;Temp;Humidity;BMP_temperature;BMP_pressure;BME280_temperature;BME280_humidity;BME280_pressure;Samples;Min_cycle;Max_cycle;Signal;HPM_P1;HPM_P2
2022/03/11 00:00:37;;;;;;;14.25;6.38;;;;;;;14.13;70.22;100619.66;7389282;19;20078;-79
2022/03/11 00:03:05;;;;;;;12.55;6.05;;;;;;;14.13;69.42;100622.28;7385028;19;20011;-78
2022/03/11 00:05:32;;;;;;;10.45;4.90;;;;;;;14.12;69.07;100618.00;7388359;19;20029;-78
2022/03/11 00:08:09;;;;;;;;;;;;;;;;;;;;;
2022/03/11 00:10:36;;;;;;;9.52;4.78;;;;;;;14.08;68.52;100614.09;7388249;19;20081;-79
2022/03/11 00:13:03;;;;;;;12.30;5.18;;;;;;;14.08;68.63;100617.56;7390201;19;20407;-79
2022/03/11 00:15:30;;;;;;;17.00;6.45;;;;;;;14.06;68.56;100610.81;7387236;19;20123;-79
2022/03/11 00:17:58;;;;;;;12.73;5.65;;;;;;;14.08;67.97;100606.13;7385424;19;20018;-79
2022/03/11 00:20:25;;;;;;;11.02;5.05;;;;;;;14.09;67.91;100607.78;7388620;19;20334;-79
2022/03/11 00:22:52;;;;;;;12.50;5.38;;;;;;;14.09;68.35;100608.63;7388768;19;20018;-78
2022/03/11 00:25:25;;;;;;;11.63;5.53;;;;;;;14.08;67.52;100603.50;7386676;19;20390;-80
2022/03/11 00:27:54;;;;;;;13.45;5.80;;;;;;;14.10;67.46;100606.78;7387925;19;20013;-79
2022/03/11 00:30:21;;;;;;;13.00;6.82;;;;;;;14.11;68.34;100601.34;7388076;19;20317;-79
2022/03/11 00:32:48;;;;;;;13.57;5.18;;;;;;;14.11;66.94;100592.56;7388173;19;20026;-79
2022/03/11 00:35:15;;;;;;;13.80;5.78;;;;;;;14.05;66.56;100591.47;7385007;19;20290;-79
2022/03/11 00:37:43;;;;;;;10.35;5.40;;;;;;;14.09;67.55;100581.34;7385602;19;20074;-80
2022/03/11 00:40:13;;;;;;;15.60;5.78;;;;;;;14.11;66.60;100576.69;7391002;19;20099;-78
2022/03/11 00:42:40;;;;;;;11.90;6.10;;;;;;;14.07;66.25;100581.50;7387676;19;20014;-79
2022/03/11 00:45:08;;;;;;;15.93;7.15;;;;;;;14.06;66.72;100566.66;7386376;19;20017;-78
2022/03/11 00:47:36;;;;;;;13.93;5.95;;;;;;;14.04;66.22;100581.06;7387065;19;20006;-79
2022/03/11 00:50:04;;;;;;;13.13;6.10;;;;;;;14.05;66.13;100574.78;7388514;19;20046;-79
2022/03/11 00:52:31;;;;;;;14.85;5.75;;;;;;;14.03;65.94;100576.75;7389982;19;20010;-78
2022/03/11 00:54:58;;;;;;;15.80;6.30;;;;;;;14.00;65.74;100559.44;7387694;19;20028;-78
2022/03/11 00:57:25;;;;;;;15.18;7.40;;;;;;;14.02;66.75;100567.19;7387489;19;20035;-80
2022/03/11 00:59:52;;;;;;;14.95;6.47;;;;;;;14.03;66.04;100548.47;7386081;19;20495;-78
2022/03/11 01:02:19;;;;;;;12.90;6.25;;;;;;;14.02;65.57;100540.72;7388364;19;20093;-79
2022/03/11 01:04:48;;;;;;;12.07;5.90;;;;;;;14.00;66.13;100543.56;7381396;19;20117;-78
2022/03/11 01:07:16;;;;;;;14.73;5.88;;;;;;;13.99;65.89;100531.34;7383789;19;20379;-78
2022/03/11 01:09:43;;;;;;;14.57;5.85;;;;;;;13.97;65.82;100525.41;7387194;19;20078;-77
2022/03/11 01:12:10;;;;;;;20.73;11.93;;;;;;;13.97;66.46;100525.41;7382918;19;20031;-77
2022/03/11 01:14:37;;;;;;;14.05;5.60;;;;;;;13.95;66.28;100518.66;7385400;19;20011;-78
2022/03/11 01:17:04;;;;;;;13.48;4.93;;;;;;;13.95;65.85;100522.13;7383849;19;20115;-78
2022/03/11 01:19:31;;;;;;;17.13;6.43;;;;;;;13.92;67.02;100519.84;7383406;19;20015;-78
2022/03/11 01:21:58;;;;;;;11.77;6.57;;;;;;;13.92;66.08;100533.06;7384550;19;20381;-78
2022/03/11 01:24:25;;;;;;;11.85;5.88;;;;;;;13.88;65.46;100523.84;7384784;19;20414;-80
2022/03/11 01:26:52;;;;;;;14.77;7.72;;;;;;;13.88;65.99;100525.66;7386174;19;20044;-79
2022/03/11 01:29:19;;;;;;;13.13;5.55;;;;;;;13.87;65.94;100516.91;7386532;19;20070;-78
2022/03/11 01:31:46;;;;;;;14.48;5.72;;;;;;;13.84;65.76;100511.19;7381583;19;20096;-78
2022/03/11 01:34:14;;;;;;;14.65;7.78;;;;;;;13.83;66.07;100510.34;7384473;19;20386;-79
2022/03/11 01:36:42;;;;;;;15.52;5.78;;;;;;;13.85;67.08;100499.59;7383478;19;20017;-77
2022/03/11 01:39:09;;;;;;;15.18;6.90;;;;;;;13.86;66.14;100506.53;7384250;19;20051;-79
2022/03/11 01:41:36;;;;;;;13.10;5.90;;;;;;;13.82;65.96;100502.59;7382691;19;20146;-79
2022/03/11 01:44:08;;;;;;;11.38;5.53;;;;;;;13.83;66.45;100502.41;7385206;19;20197;-79
2022/03/11 01:46:36;;;;;;;14.82;6.40;;;;;;;13.83;66.05;100494.47;7385315;19;20022;-80
2022/03/11 01:49:06;;;;;;;14.30;6.10;;;;;;;13.87;67.50;100500.22;7382602;19;20014;-79
2022/03/11 01:51:37;;;;;;;13.82;5.85;;;;;;;13.91;66.66;100493.59;7380170;19;20023;-78
2022/03/11 01:54:05;;;;;;;18.02;7.68;;;;;;;13.89;66.15;100491.13;7387078;19;20074;-78
2022/03/11 01:56:32;;;;;;;16.80;6.47;;;;;;;13.90;67.07;100486.66;7382786;19;20078;-79
2022/03/11 01:58:59;;;;;;;12.43;5.07;;;;;;;13.86;66.77;100483.56;7381882;19;20014;-77
2022/03/11 02:01:26;;;;;;;12.30;6.05;;;;;;;13.87;66.94;100474.59;7383067;19;20556;-78
2022/03/11 02:03:54;;;;;;;11.90;5.47;;;;;;;13.89;66.46;100464.66;7383409;19;20011;-79
2022/03/11 02:06:22;;;;;;;11.38;5.13;;;;;;;13.86;66.74;100466.88;7383090;19;20011;-77
2022/03/11 02:08:50;;;;;;;13.23;5.53;;;;;;;13.85;66.67;100463.41;7382909;19;20155;-78
2022/03/11 02:11:16;;;;;;;11.25;5.18;;;;;;;13.85;66.57;100462.56;7380879;19;20133;-78
2022/03/11 02:13:47;;;;;;;19.33;8.23;;;;;;;13.86;67.16;100454.47;7383608;19;20093;-78
2022/03/11 02:16:16;;;;;;;11.43;5.18;;;;;;;13.86;66.96;100445.72;7386052;19;20006;-78
2022/03/11 02:18:45;;;;;;;14.52;7.22;;;;;;;13.86;67.37;100445.72;7380914;19;20020;-78
2022/03/11 02:21:14;;;;;;;11.38;5.15;;;;;;;13.86;66.96;100438.59;7384064;19;20349;-79
2022/03/11 02:23:48;;;;;;;8.88;4.60;;;;;;;13.88;66.72;100441.84;7385672;19;20023;-77
2022/03/11 02:26:17;;;;;;;14.40;5.60;;;;;;;13.84;67.25;100437.94;7380242;19;20082;-78
2022/03/11 02:28:44;;;;;;;10.05;4.72;;;;;;;13.86;66.72;100437.78;7386138;19;20006;-78
2022/03/11 02:31:11;;;;;;;11.77;5.05;;;;;;;13.88;66.57;100439.22;7384594;19;20041;-79
2022/03/11 02:33:39;;;;;;;10.95;5.13;;;;;;;13.87;66.70;100434.91;7385451;19;20097;-79
2022/03/11 02:36:07;;;;;;;10.98;4.95;;;;;;;13.83;67.03;100430.19;7380818;19;20078;-79
2022/03/11 02:38:34;;;;;;;8.35;4.10;;;;;;;13.85;67.00;100430.84;7383770;19;20085;-79
2022/03/11 02:41:01;;;;;;;9.70;4.50;;;;;;;13.85;67.03;100421.06;7382496;19;20463;-80
2022/03/11 02:43:28;;;;;;;9.50;4.63;;;;;;;13.86;66.54;100404.22;7383093;19;20014;-78
2022/03/11 02:45:55;;;;;;;9.77;4.70;;;;;;;13.83;67.01;100409.84;7383109;19;20019;-78
2022/03/11 02:48:22;;;;;;;9.77;4.70;;;;;;;13.78;67.00;100401.66;7383430;19;20636;-79
2022/03/11 02:50:49;;;;;;;12.15;5.20;;;;;;;13.80;68.09;100404.13;7379760;19;20010;-79
2022/03/11 02:53:16;;;;;;;10.05;4.47;;;;;;;13.78;67.28;100395.53;7379267;19;20065;-79
2022/03/11 02:55:43;;;;;;;12.73;4.68;;;;;;;13.76;67.21;100394.91;7380978;19;20003;-78
2022/03/11 02:58:10;;;;;;;10.80;4.22;;;;;;;13.75;67.29;100393.28;7376929;19;20013;-78
2022/03/11 03:00:37;;;;;;;9.15;3.92;;;;;;;13.74;67.29;100384.53;7380378;19;20094;-78
2022/03/11 03:03:10;;;;;;;10.95;5.93;;;;;;;13.74;67.93;100379.22;7378984;19;20039;-79
2022/03/11 03:05:40;;;;;;;11.32;4.90;;;;;;;13.72;67.99;100381.22;7379568;19;20010;-78
2022/03/11 03:08:08;;;;;;;11.80;4.72;;;;;;;13.70;67.50;100370.84;7382525;19;20010;-79
2022/03/11 03:10:35;;;;;;;10.07;5.07;;;;;;;13.68;67.98;100367.56;7383434;19;20014;-78
2022/03/11 03:13:04;;;;;;;12.43;5.18;;;;;;;13.65;67.83;100365.31;7384205;19;20070;-78
2022/03/11 03:15:38;;;;;;;11.35;5.00;;;;;;;13.61;68.61;100356.06;7379922;19;20007;-79
2022/03/11 03:18:05;;;;;;;10.65;5.25;;;;;;;13.59;68.25;100352.00;7378907;19;20014;-79
2022/03/11 03:20:32;;;;;;;11.20;4.22;;;;;;;13.59;67.91;100358.09;7384031;19;20060;-78
2022/03/11 03:22:59;;;;;;;9.15;4.10;;;;;;;13.57;68.17;100352.16;7378308;19;20015;-78
2022/03/11 03:25:26;;;;;;;10.10;4.78;;;;;;;13.55;68.27;100345.44;7381550;19;20010;-78
2022/03/11 03:27:53;;;;;;;11.57;5.07;;;;;;;13.50;68.48;100347.81;7384218;19;20106;-78
2022/03/11 03:30:20;;;;;;;12.05;5.15;;;;;;;13.48;68.97;100350.63;7384624;19;20541;-79
2022/03/11 03:32:47;;;;;;;14.90;5.18;;;;;;;13.43;68.93;100338.97;7380810;19;20510;-78
2022/03/11 03:35:14;;;;;;;12.80;5.15;;;;;;;13.42;69.00;100337.31;7376733;19;20376;-78
2022/03/11 03:37:41;;;;;;;10.77;4.78;;;;;;;13.42;69.37;100340.78;7380398;19;20010;-78
2022/03/11 03:40:09;;;;;;;12.20;4.97;;;;;;;13.37;69.12;100337.88;7379946;19;20082;-78
2022/03/11 03:42:36;;;;;;;13.13;5.65;;;;;;;13.35;70.00;100333.78;7382513;19;20081;-78
2022/03/11 03:45:04;;;;;;;13.23;5.65;;;;;;;13.34;69.86;100327.69;7379858;19;20438;-79
2022/03/11 03:47:31;;;;;;;9.77;4.88;;;;;;;13.32;69.50;100318.28;7381516;19;20524;-79
2022/03/11 03:49:58;;;;;;;12.80;5.10;;;;;;;13.31;70.60;100319.31;7380025;19;20018;-77
2022/03/11 03:52:27;;;;;;;11.90;4.32;;;;;;;13.26;70.03;100299.50;7380496;19;20534;-78
2022/03/11 03:54:55;;;;;;;11.55;5.47;;;;;;;13.24;70.55;100298.06;7381899;19;20021;-77
2022/03/11 03:57:22;;;;;;;12.38;4.47;;;;;;;13.23;70.38;100294.59;7380141;19;20305;-78
2022/03/11 03:59:49;;;;;;;12.98;5.90;;;;;;;13.21;69.80;100299.25;7379971;19;20029;-77
2022/03/11 04:02:16;;;;;;;10.85;4.97;;;;;;;13.20;70.81;100288.88;7380483;19;20074;-78
2022/03/11 04:04:43;;;;;;;11.82;5.28;;;;;;;13.14;70.52;100282.50;7379355;19;20010;-77
2022/03/11 04:07:11;;;;;;;10.25;4.50;;;;;;;13.08;70.13;100285.00;7376979;19;20080;-78
2022/03/11 04:09:38;;;;;;;11.10;4.95;;;;;;;13.11;70.67;100288.13;7384615;19;20687;-78
2022/03/11 04:12:05;;;;;;;14.10;4.80;;;;;;;13.09;70.62;100290.13;7385439;19;20027;-78
2022/03/11 04:14:32;;;;;;;9.68;4.72;;;;;;;13.07;70.48;100289.47;7389431;19;20355;-78
2022/03/11 04:16:59;;;;;;;11.27;4.85;;;;;;;13.01;70.81;100286.72;7389026;19;20538;-78
2022/03/11 04:19:26;;;;;;;13.07;5.22;;;;;;;13.01;70.71;100281.44;7384007;19;20014;-77
2022/03/11 04:21:53;;;;;;;10.13;4.88;;;;;;;12.97;71.26;100282.81;7390075;19;20074;-78
2022/03/11 04:24:21;;;;;;;15.25;5.93;;;;;;;12.94;71.09;100286.66;7384364;19;20086;-78
2022/03/11 04:26:48;;;;;;;12.93;5.93;;;;;;;12.90;71.01;100284.56;7385618;19;20074;-79
2022/03/11 04:29:15;;;;;;;10.98;5.60;;;;;;;12.88;70.98;100282.09;7385032;19;20102;-79
2022/03/11 04:31:42;;;;;;;14.55;7.20;;;;;;;12.84;71.63;100276.38;7386697;19;20174;-78
2022/03/11 04:34:09;;;;;;;15.43;5.68;;;;;;;12.81;71.70;100287.28;7382370;19;20025;-78
2022/03/11 04:36:39;;;;;;;13.68;5.97;;;;;;;12.79;71.14;100275.25;7386115;19;20078;-78
2022/03/11 04:39:07;;;;;;;14.48;5.55;;;;;;;12.79;71.57;100281.38;7388306;19;20017;-78
2022/03/11 04:41:35;;;;;;;14.93;5.88;;;;;;;12.77;71.83;100285.19;7386066;19;20015;-79
2022/03/11 04:44:03;;;;;;;10.88;5.75;;;;;;;12.75;71.59;100276.59;7387154;19;20018;-79
2022/03/11 04:46:31;;;;;;;17.75;6.40;;;;;;;12.70;71.94;100277.16;7386484;19;20017;-78
2022/03/11 04:48:58;;;;;;;15.23;6.43;;;;;;;12.68;72.82;100276.53;7385833;19;20352;-79
2022/03/11 04:51:26;;;;;;;11.40;5.50;;;;;;;12.65;72.10;100276.88;7383155;19;20018;-79
2022/03/11 04:53:54;;;;;;;15.38;6.13;;;;;;;12.66;72.19;100277.69;7387236;19;20605;-79
2022/03/11 04:56:21;;;;;;;14.20;6.65;;;;;;;12.61;72.55;100265.03;7385746;19;20299;-78
2022/03/11 04:58:48;;;;;;;13.90;6.78;;;;;;;12.59;72.33;100264.41;7385591;19;20014;-78
2022/03/11 05:01:15;;;;;;;13.45;6.60;;;;;;;12.58;72.69;100270.69;7386153;19;20082;-79
2022/03/11 05:03:42;;;;;;;15.02;7.38;;;;;;;12.60;72.94;100270.47;7381963;19;20020;-78
2022/03/11 05:06:10;;;;;;;11.82;6.38;;;;;;;12.56;73.60;100267.38;7382635;19;20036;-78
2022/03/11 05:08:37;;;;;;;14.45;6.20;;;;;;;12.55;74.02;100273.66;7383429;19;20033;-78
2022/03/11 05:11:05;;;;;;;11.55;5.53;;;;;;;12.49;73.15;100263.03;7385278;19;20003;-78
2022/03/11 05:13:32;;;;;;;13.82;6.90;;;;;;;12.51;73.90;100258.38;7385144;19;20388;-77
2022/03/11 05:15:59;;;;;;;16.30;6.80;;;;;;;12.49;73.37;100249.84;7386861;19;20070;-77
2022/03/11 05:18:27;;;;;;;14.20;6.25;;;;;;;12.46;73.44;100250.16;7382354;19;20007;-78
2022/03/11 05:20:54;;;;;;;12.35;5.75;;;;;;;12.47;74.15;100254.47;7380640;19;20017;-78
2022/03/11 05:23:22;;;;;;;14.27;6.13;;;;;;;12.44;73.31;100247.75;7387399;19;20269;-78
2022/03/11 05:25:49;;;;;;;14.63;5.93;;;;;;;12.43;73.19;100248.72;7385443;19;20157;-78
2022/03/11 05:28:15;;;;;;;15.60;6.38;;;;;;;12.38;73.30;100245.81;7385340;19;20383;-79
2022/03/11 05:30:43;;;;;;;15.10;5.68;;;;;;;12.38;73.61;100241.34;7383989;19;20249;-77
2022/03/11 05:33:14;;;;;;;12.82;5.75;;;;;;;12.35;73.47;100227.69;7378454;19;20014;-78
2022/03/11 05:35:41;;;;;;;13.10;5.90;;;;;;;12.36;73.66;100224.03;7380402;19;20104;-78
2022/03/11 05:38:08;;;;;;;14.43;6.18;;;;;;;12.29;73.41;100234.50;7385073;19;20018;-77
2022/03/11 05:40:35;;;;;;;14.57;5.72;;;;;;;12.27;73.42;100233.88;7382200;19;20082;-78
2022/03/11 05:43:04;;;;;;;15.43;5.72;;;;;;;12.23;73.74;100237.03;7383704;19;20023;-77
2022/03/11 05:45:41;;;;;;;17.17;6.80;;;;;;;12.19;73.87;100228.63;7381216;19;20010;-79
2022/03/11 05:48:09;;;;;;;16.35;6.18;;;;;;;12.20;74.38;100222.38;7382906;19;20015;-79
2022/03/11 05:50:36;;;;;;;18.15;7.03;;;;;;;12.19;74.52;100222.56;7386896;19;20081;-79
2022/03/11 05:53:05;;;;;;;16.58;6.15;;;;;;;12.16;74.43;100215.81;7381396;19;20066;-77
2022/03/11 05:55:39;;;;;;;17.08;6.63;;;;;;;12.12;74.44;100209.28;7382457;19;20038;-78
2022/03/11 05:58:05;;;;;;;15.13;6.47;;;;;;;12.12;74.46;100208.44;7386283;19;20031;-78
2022/03/11 06:00:32;;;;;;;16.95;7.80;;;;;;;12.10;74.53;100216.53;7386506;19;20070;-78
2022/03/11 06:02:59;;;;;;;16.20;7.13;;;;;;;12.09;74.51;100209.59;7380827;19;20359;-77
2022/03/11 06:05:27;;;;;;;14.45;6.97;;;;;;;12.08;74.74;100207.16;7383483;19;20023;-78
2022/03/11 06:07:54;;;;;;;20.80;8.77;;;;;;;12.08;74.24;100204.53;7382403;19;20082;-78
2022/03/11 06:10:21;;;;;;;14.30;6.82;;;;;;;12.09;75.10;100200.91;7385358;19;20091;-78
2022/03/11 06:12:48;;;;;;;16.40;6.70;;;;;;;12.07;74.43;100193.16;7382401;19;20035;-78
2022/03/11 06:15:15;;;;;;;13.18;6.43;;;;;;;12.06;74.64;100193.34;7381399;19;20014;-78
2022/03/11 06:17:42;;;;;;;12.80;6.07;;;;;;;12.07;74.61;100194.97;7384206;19;20078;-78
2022/03/11 06:20:13;;;;;;;18.20;7.32;;;;;;;12.06;75.10;100191.53;7379437;19;20335;-78
2022/03/11 06:22:50;;;;;;;18.10;7.72;;;;;;;12.04;74.84;100180.31;7385503;19;20050;-78
2022/03/11 06:25:17;;;;;;;14.23;7.07;;;;;;;12.06;75.06;100188.06;7382288;19;20017;-79
2022/03/11 06:27:45;;;;;;;14.02;7.57;;;;;;;12.05;75.04;100184.59;7387165;19;20023;-78
2022/03/11 06:30:14;;;;;;;14.57;6.57;;;;;;;12.05;74.54;100186.41;7385243;19;20555;-78
2022/03/11 06:32:42;;;;;;;15.70;6.93;;;;;;;12.04;75.46;100180.31;7387020;19;20014;-77
2022/03/11 06:35:11;;;;;;;16.83;6.93;;;;;;;12.03;74.71;100180.50;7378955;19;20011;-77
2022/03/11 06:37:38;;;;;;;15.52;6.03;;;;;;;12.00;74.94;100174.59;7386682;19;20074;-78
2022/03/11 06:40:07;;;;;;;16.55;6.57;;;;;;;12.05;75.23;100183.78;7380451;19;20006;-80
2022/03/11 06:42:41;;;;;;;17.77;7.50;;;;;;;12.07;75.06;100177.34;7384717;19;20018;-78
2022/03/11 06:45:10;;;;;;;17.98;6.95;;;;;;;12.09;74.75;100166.63;7379876;19;20018;-78
2022/03/11 06:47:37;;;;;;;15.93;7.35;;;;;;;12.07;74.49;100166.78;7381227;19;20081;-78
2022/03/11 06:50:05;;;;;;;17.63;6.80;;;;;;;12.06;74.73;100159.88;7382818;19;20082;-78
2022/03/11 06:52:33;;;;;;;15.55;7.65;;;;;;;12.03;74.92;100165.53;7379970;19;20020;-77
2022/03/11 06:55:01;;;;;;;17.42;7.80;;;;;;;12.08;75.34;100157.06;7382788;19;20007;-79
2022/03/11 06:57:28;;;;;;;20.08;6.97;;;;;;;12.10;74.85;100147.97;7381830;19;20492;-79
2022/03/11 06:59:55;;;;;;;16.17;7.20;;;;;;;12.10;74.78;100139.22;7381852;19;20033;-79
2022/03/11 07:02:22;;;;;;;15.98;7.35;;;;;;;12.10;74.85;100149.78;7384592;19;20014;-79
2022/03/11 07:04:53;;;;;;;16.27;6.90;;;;;;;12.17;74.71;100150.72;7382963;19;20399;-78
2022/03/11 07:07:20;;;;;;;21.33;7.35;;;;;;;12.17;74.57;100141.00;7379786;19;20014;-78
2022/03/11 07:09:47;;;;;;;17.40;6.95;;;;;;;12.23;74.45;100142.91;7382714;19;20014;-79
2022/03/11 07:12:14;;;;;;;14.35;6.68;;;;;;;12.27;74.19;100143.34;7379554;19;20007;-78
2022/03/11 07:14:41;;;;;;;16.80;7.22;;;;;;;12.26;74.09;100131.97;7380851;19;20376;-78
2022/03/11 07:17:15;;;;;;;18.48;8.07;;;;;;;12.29;74.29;100131.59;7383739;19;20011;-79
2022/03/11 07:19:42;;;;;;;17.58;7.53;;;;;;;12.35;74.10;100127.44;7379075;19;20014;-78
2022/03/11 07:22:09;;;;;;;20.42;8.40;;;;;;;12.35;73.59;100127.44;7385012;19;20344;-78
2022/03/11 07:24:36;;;;;;;14.95;7.65;;;;;;;12.35;73.63;100133.53;7385821;19;20407;-77
2022/03/11 07:27:03;;;;;;;17.40;7.53;;;;;;;12.39;73.88;100131.38;7378993;19;20074;-79
2022/03/11 07:29:30;;;;;;;16.38;7.35;;;;;;;12.44;73.67;100129.78;7380758;19;20018;-79
2022/03/11 07:31:57;;;;;;;16.40;7.55;;;;;;;12.42;73.66;100128.34;7383757;19;20028;-81
2022/03/11 07:34:26;;;;;;;19.00;7.65;;;;;;;12.46;73.84;100126.97;7382024;19;20011;-79
2022/03/11 07:36:52;;;;;;;17.38;7.68;;;;;;;12.50;73.98;100130.06;7381108;19;20395;-78
2022/03/11 07:39:20;;;;;;;16.67;7.97;;;;;;;12.55;73.74;100117.97;7383044;19;20015;-78
2022/03/11 07:41:49;;;;;;;15.38;6.90;;;;;;;12.63;73.32;100120.53;7383557;19;20070;-80
2022/03/11 07:44:17;;;;;;;15.98;8.15;;;;;;;12.67;73.49;100124.44;7388728;19;20014;-78
2022/03/11 07:46:51;;;;;;;17.45;7.15;;;;;;;12.66;73.12;100116.69;7391440;19;20050;-79
2022/03/11 07:49:19;;;;;;;16.73;6.43;;;;;;;12.69;72.64;100103.13;7387941;19;20011;-78
2022/03/11 07:51:45;;;;;;;15.13;7.45;;;;;;;12.71;73.29;100101.94;7385218;19;20476;-79
2022/03/11 07:54:12;;;;;;;15.35;7.07;;;;;;;12.74;72.98;100103.41;7387774;19;20040;-78
2022/03/11 07:56:40;;;;;;;15.88;6.80;;;;;;;12.71;72.89;100098.47;7385904;19;20086;-78
2022/03/11 07:59:07;;;;;;;17.45;7.13;;;;;;;12.67;72.97;100090.13;7392256;19;20010;-78
2022/03/11 08:01:34;;;;;;;13.65;6.32;;;;;;;12.65;73.23;100092.09;7391083;19;20407;-79
2022/03/11 08:04:03;;;;;;;18.33;6.78;;;;;;;12.67;73.11;100090.13;7387836;19;20011;-79
2022/03/11 08:06:30;;;;;;;14.48;5.57;;;;;;;12.70;72.55;100083.63;7386253;19;20131;-77
2022/03/11 08:08:58;;;;;;;13.07;6.10;;;;;;;12.68;73.54;100073.28;7388308;19;20448;-78
2022/03/11 08:11:25;;;;;;;15.73;6.00;;;;;;;12.69;73.06;100082.84;7390497;19;20019;-78
2022/03/11 08:13:52;;;;;;;12.95;5.25;;;;;;;12.64;72.37;100081.75;7389226;19;20077;-80
2022/03/11 08:16:20;;;;;;;13.50;6.53;;;;;;;12.68;73.46;100089.13;7388442;19;20727;-78
2022/03/11 08:18:48;;;;;;;14.18;5.75;;;;;;;12.71;72.79;100072.91;7389449;19;20452;-80
2022/03/11 08:21:16;;;;;;;11.68;5.45;;;;;;;12.73;73.37;100073.53;7387771;19;20111;-80
2022/03/11 08:23:44;;;;;;;12.98;5.75;;;;;;;12.79;72.80;100062.25;7388604;19;20023;-81
2022/03/11 08:26:12;;;;;;;13.98;6.07;;;;;;;12.85;72.47;100065.94;7388851;19;20024;-81
2022/03/11 08:28:44;;;;;;;13.65;5.90;;;;;;;12.87;72.45;100056.03;7388678;19;20623;-80
2022/03/11 08:31:32;;;;;;;15.10;5.68;;;;;;;12.94;72.21;100056.91;7388243;19;20034;-80
2022/03/11 08:34:00;;;;;;;13.65;6.38;;;;;;;12.97;72.67;100059.19;7386928;19;20022;-82
2022/03/11 08:36:26;;;;;;;14.40;5.70;;;;;;;13.02;71.74;100058.59;7388976;19;20015;-82
2022/03/11 08:38:54;;;;;;;12.93;6.85;;;;;;;13.09;71.73;100060.31;7392376;19;20014;-81
2022/03/11 08:41:22;;;;;;;14.10;6.15;;;;;;;13.14;71.84;100060.63;7388801;19;20494;-83
2022/03/11 08:43:49;;;;;;;12.02;6.07;;;;;;;13.17;71.22;100056.75;7391514;19;20041;-80
2022/03/11 08:46:16;;;;;;;15.50;7.25;;;;;;;13.25;71.35;100049.56;7387265;19;20016;-79
2022/03/11 08:48:44;;;;;;;12.98;6.15;;;;;;;13.30;70.46;100037.59;7389239;19;20010;-80
2022/03/11 08:51:11;;;;;;;13.52;5.95;;;;;;;13.36;71.04;100037.63;7384967;19;20527;-80
2022/03/11 08:53:38;;;;;;;14.73;4.93;;;;;;;13.39;70.26;100045.19;7386049;19;20018;-79
2022/03/11 08:56:05;;;;;;;14.65;5.68;;;;;;;13.45;70.46;100030.41;7381790;19;20018;-78
2022/03/11 08:58:32;;;;;;;14.20;5.93;;;;;;;13.49;70.17;100034.28;7388179;19;20027;-79
2022/03/11 09:00:59;;;;;;;10.30;5.18;;;;;;;13.54;70.21;100031.88;7366913;19;20018;-78
2022/03/11 09:03:26;;;;;;;12.27;5.13;;;;;;;13.57;70.18;100029.66;7376898;19;20117;-80
2022/03/11 09:05:55;;;;;;;14.48;5.55;;;;;;;13.66;72.49;100025.06;7385558;19;20014;-79
2022/03/11 09:08:22;;;;;;;14.20;6.35;;;;;;;13.71;70.80;100023.47;7383292;19;20031;-78
2022/03/11 09:10:49;;;;;;;15.25;5.25;;;;;;;13.78;69.83;100020.88;7390534;19;20139;-79
2022/03/11 09:13:16;;;;;;;12.73;6.45;;;;;;;13.81;70.09;100012.56;7385205;19;20476;-79
2022/03/11 09:15:43;;;;;;;12.73;5.20;;;;;;;13.84;69.59;99996.31;7385844;19;20037;-79
2022/03/11 09:18:10;;;;;;;10.18;5.13;;;;;;;13.85;68.98;100000.59;7383442;19;20399;-79
2022/03/11 09:20:39;;;;;;;11.27;5.40;;;;;;;13.86;69.23;100002.22;7384714;19;20023;-79
2022/03/11 09:23:14;;;;;;;12.13;6.18;;;;;;;13.81;69.53;100007.28;7387162;19;20451;-78
2022/03/11 09:25:41;;;;;;;9.43;4.07;;;;;;;13.85;69.48;99999.78;7385042;19;20090;-78
2022/03/11 09:28:10;;;;;;;13.23;5.22;;;;;;;13.85;69.18;100008.53;7384874;19;20086;-80
2022/03/11 09:30:37;;;;;;;14.82;5.85;;;;;;;13.90;69.02;100002.66;7381797;19;20027;-80
2022/03/11 09:33:08;;;;;;;11.40;4.85;;;;;;;13.90;68.38;99995.53;7383066;19;20475;-79
2022/03/11 09:35:39;;;;;;;12.27;4.55;;;;;;;13.94;68.54;99998.59;7382568;19;20044;-79
2022/03/11 09:38:06;;;;;;;10.68;4.63;;;;;;;13.99;68.57;99997.00;7384047;19;20438;-78
2022/03/11 09:40:33;;;;;;;10.55;5.10;;;;;;;14.01;68.15;99980.94;7385514;19;20405;-79
2022/03/11 09:43:01;;;;;;;11.30;4.50;;;;;;;14.01;68.37;99987.06;7386036;19;20019;-80
2022/03/11 09:45:31;;;;;;;7.57;4.03;;;;;;;14.07;67.83;99980.94;7384756;19;20037;-78
2022/03/11 09:47:59;;;;;;;9.40;4.18;;;;;;;14.10;68.04;99971.81;7383153;19;20456;-79
2022/03/11 09:50:28;;;;;;;10.52;4.70;;;;;;;14.16;67.88;99964.94;7384112;19;20435;-79
2022/03/11 09:52:55;;;;;;;7.43;3.10;;;;;;;14.20;67.33;99974.09;7381281;19;20059;-80
2022/03/11 09:55:22;;;;;;;9.65;3.40;;;;;;;14.24;66.75;99970.03;7385094;19;20014;-78
2022/03/11 09:57:49;;;;;;;7.45;3.90;;;;;;;14.23;66.70;99957.81;7383520;19;20652;-78
2022/03/11 10:00:16;;;;;;;8.15;3.58;;;;;;;14.24;67.05;99954.16;7380918;19;20014;-80
2022/03/11 10:02:47;;;;;;;11.07;3.83;;;;;;;14.23;67.33;99949.88;7379974;19;20094;-79
2022/03/11 10:05:15;;;;;;;6.28;3.10;;;;;;;14.27;66.78;99949.31;7383856;19;20014;-79
2022/03/11 10:08:03;;;;;;;9.48;2.80;;;;;;;14.34;66.71;99952.78;7383859;19;20074;-79
2022/03/11 10:10:30;;;;;;;7.55;2.92;;;;;;;14.37;66.54;99936.56;7383945;19;20015;-78
2022/03/11 10:13:15;;;;;;;7.03;2.80;;;;;;;14.40;67.21;99937.97;7381921;19;20014;-79
2022/03/11 10:15:42;;;;;;;8.95;3.08;;;;;;;14.44;65.88;99920.66;7384553;19;20102;-79
2022/03/11 10:18:15;;;;;;;8.18;3.35;;;;;;;14.41;66.80;99916.59;7381553;19;20022;-78
2022/03/11 10:20:42;;;;;;;5.28;2.55;;;;;;;14.40;66.15;99920.25;7382761;19;20010;-80
2022/03/11 10:23:15;;;;;;;6.70;2.83;;;;;;;14.44;66.14;99916.19;7382999;19;20007;-79
2022/03/11 10:25:45;;;;;;;9.82;2.80;;;;;;;14.46;66.43;99916.00;7380237;19;20006;-79
2022/03/11 10:28:14;;;;;;;8.55;2.85;;;;;;;14.53;67.77;99908.88;7382855;19;20024;-79
2022/03/11 10:30:43;;;;;;;10.00;3.10;;;;;;;14.53;66.13;99908.88;7383485;19;20031;-79
2022/03/11 10:33:14;;;;;;;7.15;2.72;;;;;;;14.60;65.61;99908.88;7378915;19;20022;-79
2022/03/11 10:35:47;;;;;;;7.07;2.90;;;;;;;14.66;65.33;99905.44;7384495;19;20197;-79
2022/03/11 10:38:30;;;;;;;5.88;2.58;;;;;;;14.65;64.32;99901.97;7384909;19;20018;-78
2022/03/11 10:40:58;;;;;;;6.95;2.83;;;;;;;14.66;64.59;99905.44;7381601;19;20078;-78
2022/03/11 10:43:27;;;;;;;5.88;3.00;;;;;;;14.64;64.09;99910.94;7381634;19;20032;-80
2022/03/11 10:46:09;;;;;;;6.97;2.20;;;;;;;14.64;63.72;99910.94;7382683;19;20010;-79
2022/03/11 10:48:48;;;;;;;7.18;1.90;;;;;;;14.69;64.44;99897.06;7381018;19;20010;-78
2022/03/11 10:51:19;;;;;;;7.30;2.20;;;;;;;14.76;64.39;99897.91;7380252;19;20017;-78
2022/03/11 10:53:49;;;;;;;5.70;1.67;;;;;;;14.80;64.02;99896.47;7385001;19;20010;-80
2022/03/11 10:56:29;;;;;;;7.30;2.47;;;;;;;14.80;63.20;99892.00;7382634;19;20037;-80
2022/03/11 10:58:56;;;;;;;5.78;1.90;;;;;;;14.79;62.72;99897.50;7384976;19;20014;-78
2022/03/11 11:01:35;;;;;;;6.15;2.22;;;;;;;14.80;62.68;99904.41;7382680;19;20393;-78
2022/03/11 11:04:05;;;;;;;3.75;1.70;;;;;;;14.80;62.81;99893.84;7378336;19;20401;-78
2022/03/11 11:06:32;;;;;;;9.05;2.20;;;;;;;14.75;63.15;99888.31;7382374;19;20461;-78
2022/03/11 11:09:04;;;;;;;4.97;2.17;;;;;;;14.78;62.98;99891.38;7381034;19;20502;-79
2022/03/11 11:11:32;;;;;;;6.57;2.15;;;;;;;14.80;62.86;99888.53;7380809;19;20324;-79
2022/03/11 11:14:04;;;;;;;5.60;2.47;;;;;;;14.83;63.06;99894.22;7380861;19;20147;-79
2022/03/11 11:16:38;;;;;;;7.05;2.47;;;;;;;14.83;63.27;99890.78;7380842;19;20010;-80
2022/03/11 11:19:08;;;;;;;5.70;2.95;;;;;;;14.84;63.27;99874.69;7377748;19;20011;-78
2022/03/11 11:21:38;;;;;;;7.43;2.55;;;;;;;14.88;63.09;99877.75;7381621;19;20039;-79
2022/03/11 11:24:15;;;;;;;9.35;2.42;;;;;;;14.84;62.95;99877.31;7383222;19;20099;-79
2022/03/11 11:26:48;;;;;;;6.95;2.30;;;;;;;14.79;62.15;99885.06;7382082;19;20007;-79